Time;durP1;ratioP1;P1;durP2;ratioP2;P2;SDS_P1;SDS_P2;PMS_P1;PMS_P2;Temp;Humidity;BMP_temperature;BMP_pressure;BME280_temperature;BME280_humidity;BME280_pressure;Samples;Min_cycle;Max_cycle;Signal;HPM_P1;HPM_P2
2022/06/11 00:01:08;;;;;;;9.38;4.20;;;;;;;20.50;72.03;98240.28;5349480;26;20123;-80
2022/06/11 00:03:35;;;;;;;8.75;3.65;;;;;;;20.47;71.40;98240.53;5369187;26;20111;-79
2022/06/11 00:06:03;;;;;;;8.23;3.58;;;;;;;20.10;72.98;98242.59;5369415;26;20105;-79
2022/06/11 00:08:31;;;;;;;8.50;3.90;;;;;;;19.87;74.06;98249.59;5368794;26;20118;-80
2022/06/11 00:10:58;;;;;;;6.37;3.10;;;;;;;19.86;73.95;98247.94;5369126;26;20076;-80
2022/06/11 00:13:25;;;;;;;11.85;4.30;;;;;;;20.74;70.44;98244.53;5369457;26;20434;-79
2022/06/11 00:15:54;;;;;;;9.07;3.67;;;;;;;20.69;70.39;98238.81;5368945;26;20447;-79
2022/06/11 00:18:22;;;;;;;9.68;3.78;;;;;;;19.92;73.70;98251.88;5368941;26;20123;-79
2022/06/11 00:20:49;;;;;;;7.12;3.50;;;;;;;20.05;73.54;98242.13;5369403;26;20086;-79
2022/06/11 00:23:17;;;;;;;10.27;3.70;;;;;;;19.91;73.55;98244.97;5369009;26;20070;-79
2022/06/11 00:25:44;;;;;;;9.32;4.03;;;;;;;19.87;73.71;98249.59;5369303;26;20064;-79
2022/06/11 00:28:11;;;;;;;8.63;3.80;;;;;;;19.96;73.30;98249.84;5369110;26;20099;-79
2022/06/11 00:30:38;;;;;;;9.50;3.67;;;;;;;19.94;73.09;98244.75;5368911;26;20066;-79
2022/06/11 00:33:08;;;;;;;10.18;3.95;;;;;;;19.66;73.85;98256.50;5369440;26;20072;-79
2022/06/11 00:35:38;;;;;;;14.30;4.37;;;;;;;20.02;72.67;98247.59;5369203;26;20111;-79
2022/06/11 00:38:05;;;;;;;7.62;3.58;;;;;;;20.22;71.89;98267.84;5368602;26;20111;-79
2022/06/11 00:40:34;;;;;;;8.68;3.55;;;;;;;20.33;71.59;98256.50;5349463;26;20115;-79
2022/06/11 00:43:02;;;;;;;8.68;4.03;;;;;;;20.62;70.30;98266.47;5349355;26;20064;-79
2022/06/11 00:45:45;;;;;;;7.22;3.42;;;;;;;20.66;69.31;98265.28;5368927;26;20066;-80
2022/06/11 00:48:16;;;;;;;8.65;3.72;;;;;;;20.81;69.18;98269.28;5344905;26;20112;-80
2022/06/11 00:50:49;;;;;;;8.95;3.90;;;;;;;21.14;67.59;98275.34;5344948;26;20066;-79
2022/06/11 00:53:32;;;;;;;10.32;3.75;;;;;;;20.65;69.82;98263.63;5345686;26;20119;-79
2022/06/11 00:55:59;;;;;;;10.43;4.20;;;;;;;20.49;70.05;98261.38;5345535;26;20060;-79
2022/06/11 00:58:33;;;;;;;10.10;3.72;;;;;;;20.56;69.82;98259.94;5344896;26;20127;-80
2022/06/11 01:01:01;;;;;;;8.90;4.00;;;;;;;20.42;69.95;98253.19;5345324;26;20197;-80
2022/06/11 01:03:34;;;;;;;9.40;4.18;;;;;;;20.59;69.93;98258.84;5346782;26;20132;-79
2022/06/11 01:06:30;;;;;;;7.47;3.60;;;;;;;20.49;69.38;98246.47;5348056;26;20116;-79
2022/06/11 01:09:07;;;;;;;8.40;3.62;;;;;;;20.37;70.36;98255.28;5341278;26;20091;-79
2022/06/11 01:12:05;;;;;;;10.60;3.90;;;;;;;20.68;69.31;98250.25;5344764;26;20119;-79
2022/06/11 01:15:10;;;;;;;7.72;3.53;;;;;;;20.58;69.48;98238.84;5346814;26;20062;-79
2022/06/11 01:18:02;;;;;;;8.32;4.07;;;;;;;20.42;70.53;98249.69;5346556;26;20112;-79
2022/06/11 01:20:46;;;;;;;9.80;4.22;;;;;;;20.48;70.14;98254.47;5346387;26;20055;-79
2022/06/11 01:23:46;;;;;;;8.18;4.05;;;;;;;20.78;68.83;98251.19;5346902;26;20537;-79
2022/06/11 01:26:31;;;;;;;9.27;4.22;;;;;;;21.10;67.85;98240.69;5345005;26;20111;-80
2022/06/11 01:29:26;;;;;;;10.52;4.53;;;;;;;20.79;69.20;98247.59;5346517;26;20116;-80
2022/06/11 01:31:58;;;;;;;9.68;4.25;;;;;;;20.89;68.65;98250.31;5346579;26;20100;-79
2022/06/11 01:34:45;;;;;;;9.73;4.35;;;;;;;20.19;70.98;98254.13;5345068;26;20116;-79
2022/06/11 01:37:20;;;;;;;7.85;3.90;;;;;;;20.45;69.87;98263.41;5346767;26;20078;-79
2022/06/11 01:40:05;;;;;;;8.35;4.03;;;;;;;19.78;72.33;98260.81;5344908;26;20078;-79
2022/06/11 01:42:43;;;;;;;8.20;4.30;;;;;;;20.44;70.28;98259.12;5345308;26;20048;-80
2022/06/11 01:45:22;;;;;;;11.57;4.15;;;;;;;20.75;68.38;98252.28;5345365;26;20083;-79
2022/06/11 01:47:50;;;;;;;8.23;4.10;;;;;;;20.41;70.84;98254.09;5344214;26;20071;-79
2022/06/11 01:50:20;;;;;;;8.82;4.18;;;;;;;19.81;72.38;98251.88;5346602;26;20131;-79
2022/06/11 01:52:54;;;;;;;8.32;4.00;;;;;;;20.08;71.23;98249.72;5346649;26;20059;-79
2022/06/11 01:55:47;;;;;;;8.43;4.05;;;;;;;19.85;72.21;98248.06;5344740;26;20117;-79
2022/06/11 01:58:39;;;;;;;8.27;3.65;;;;;;;19.34;74.78;98254.50;5345139;26;20115;-79
2022/06/11 02:01:21;;;;;;;10.85;4.40;;;;;;;19.92;71.98;98257.94;5346350;26;20047;-79
2022/06/11 02:04:19;;;;;;;9.45;4.10;;;;;;;19.61;73.31;98269.09;5345364;26;20055;-79
2022/06/11 02:07:19;;;;;;;8.95;4.10;;;;;;;19.91;72.29;98269.38;5345926;26;20187;-79
2022/06/11 02:10:05;;;;;;;8.55;3.83;;;;;;;19.69;73.36;98265.91;5346107;26;20072;-79
2022/06/11 02:13:02;;;;;;;9.27;3.87;;;;;;;19.31;75.12;98269.59;5345166;26;20068;-80
2022/06/11 02:15:52;;;;;;;9.80;4.47;;;;;;;20.21;71.11;98258.31;5338093;26;20092;-79
2022/06/11 02:18:21;;;;;;;9.10;3.95;;;;;;;19.46;74.06;98260.63;5338498;26;20691;-79
2022/06/11 02:20:55;;;;;;;9.02;4.03;;;;;;;18.71;76.87;98263.53;5345254;26;20087;-79
2022/06/11 02:23:26;;;;;;;8.98;3.78;;;;;;;18.72;77.51;98261.78;5344410;26;20115;-79
2022/06/11 02:25:58;;;;;;;9.20;3.67;;;;;;;18.69;78.02;98257.56;5346561;26;20101;-79
2022/06/11 02:28:28;;;;;;;9.23;4.07;;;;;;;19.01;76.41;98264.84;5346343;26;20427;-79
2022/06/11 02:30:58;;;;;;;9.15;4.20;;;;;;;18.76;77.30;98264.03;5344645;26;20060;-79
2022/06/11 02:33:25;;;;;;;8.48;3.92;;;;;;;19.23;75.58;98262.31;5345184;26;20098;-79
2022/06/11 02:35:52;;;;;;;9.35;4.32;;;;;;;19.19;75.41;98263.50;5344731;26;20058;-79
2022/06/11 02:38:22;;;;;;;8.50;4.20;;;;;;;19.16;75.78;98271.59;5346234;26;20132;-79
2022/06/11 02:40:57;;;;;;;9.40;4.28;;;;;;;19.17;75.73;98268.03;5346457;26;20060;-79
2022/06/11 02:43:24;;;;;;;9.23;4.50;;;;;;;19.59;73.98;98271.00;5346215;26;20111;-79
2022/06/11 02:45:52;;;;;;;9.63;4.25;;;;;;;19.44;73.80;98272.13;5346534;26;20044;-79
2022/06/11 02:48:20;;;;;;;8.65;3.92;;;;;;;19.67;73.59;98283.50;5362835;26;20119;-79
2022/06/11 02:50:47;;;;;;;9.15;4.20;;;;;;;20.14;72.02;98266.75;5368393;26;20076;-79
2022/06/11 02:53:15;;;;;;;9.13;3.97;;;;;;;19.86;72.35;98270.66;5349049;26;20064;-79
2022/06/11 02:55:44;;;;;;;10.18;4.43;;;;;;;20.32;70.63;98277.59;5368776;26;20063;-79
2022/06/11 02:58:12;;;;;;;11.77;4.30;;;;;;;19.92;71.54;98283.31;5368080;26;20134;-79
2022/06/11 03:00:47;;;;;;;11.07;4.03;;;;;;;19.84;72.14;98291.75;5368777;26;20106;-80
2022/06/11 03:03:14;;;;;;;8.98;3.92;;;;;;;20.41;70.47;98296.00;5368988;26;20044;-80
2022/06/11 03:05:42;;;;;;;7.85;3.67;;;;;;;19.53;73.07;98293.19;5368383;26;20052;-80
2022/06/11 03:08:09;;;;;;;10.32;4.55;;;;;;;19.49;73.62;98299.63;5368554;26;20076;-79
2022/06/11 03:10:37;;;;;;;8.25;4.00;;;;;;;19.96;71.27;98305.69;5368876;26;20131;-79
2022/06/11 03:13:05;;;;;;;11.05;3.75;;;;;;;19.91;71.82;98302.59;5368168;26;20044;-79
2022/06/11 03:15:33;;;;;;;9.00;4.07;;;;;;;20.14;70.89;98292.97;5368721;26;20043;-79
2022/06/11 03:18:01;;;;;;;9.38;4.10;;;;;;;20.07;70.94;98287.34;5368029;26;20537;-80
2022/06/11 03:20:30;;;;;;;10.70;4.32;;;;;;;20.11;70.43;98288.78;5368653;26;20111;-80
2022/06/11 03:22:57;;;;;;;9.48;4.45;;;;;;;20.25;70.37;98289.50;5368765;26;20064;-79
2022/06/11 03:25:25;;;;;;;8.25;3.85;;;;;;;21.01;67.86;98292.09;5368289;26;20064;-80
2022/06/11 03:27:52;;;;;;;10.20;4.55;;;;;;;21.39;66.10;98288.16;5348750;26;20064;-80
2022/06/11 03:30:19;;;;;;;10.27;4.53;;;;;;;21.70;65.18;98293.47;5368764;26;20446;-80
2022/06/11 03:32:46;;;;;;;10.38;4.47;;;;;;;21.67;64.89;98292.75;5368145;26;20056;-80
2022/06/11 03:35:13;;;;;;;11.18;4.53;;;;;;;21.18;66.87;98293.34;5368107;26;20085;-80
2022/06/11 03:37:40;;;;;;;8.73;4.00;;;;;;;21.36;66.46;98301.50;5368271;26;20115;-80
2022/06/11 03:40:08;;;;;;;9.82;4.50;;;;;;;21.48;65.59;98297.91;5368348;26;20111;-80
2022/06/11 03:42:35;;;;;;;8.60;3.97;;;;;;;21.81;64.55;98310.00;5368606;26;20066;-80
2022/06/11 03:45:04;;;;;;;8.30;3.92;;;;;;;22.01;63.60;98315.31;5368653;26;20047;-80
2022/06/11 03:47:31;;;;;;;9.50;4.07;;;;;;;21.56;64.48;98310.38;5368460;26;20116;-80
2022/06/11 03:49:58;;;;;;;12.93;3.90;;;;;;;21.42;65.25;98324.66;5371186;26;20068;-80
2022/06/11 03:52:27;;;;;;;8.77;3.60;;;;;;;20.67;67.66;98317.59;5369469;26;20140;-80
2022/06/11 03:54:55;;;;;;;8.13;3.97;;;;;;;20.37;68.91;98312.12;5368268;26;20053;-79
2022/06/11 03:57:23;;;;;;;10.70;3.95;;;;;;;20.26;70.04;98312.94;5368389;26;20131;-80
2022/06/11 03:59:50;;;;;;;10.43;4.00;;;;;;;19.95;71.13;98330.19;5368412;26;20121;-80
2022/06/11 04:02:17;;;;;;;8.00;3.83;;;;;;;20.11;70.26;98327.25;5368663;26;20110;-79
2022/06/11 04:04:44;;;;;;;10.20;3.92;;;;;;;20.61;68.74;98325.09;5368452;26;20050;-79
2022/06/11 04:07:12;;;;;;;7.03;3.65;;;;;;;21.27;66.76;98331.16;5367964;26;20115;-80
2022/06/11 04:09:42;;;;;;;7.97;3.95;;;;;;;21.26;65.87;98324.22;5368249;26;20103;-80
2022/06/11 04:12:11;;;;;;;9.75;3.80;;;;;;;21.76;64.68;98324.44;5368422;26;20403;-80
2022/06/11 04:14:39;;;;;;;7.18;3.60;;;;;;;22.37;61.95;98317.47;5367929;26;20106;-80
2022/06/11 04:17:11;;;;;;;10.38;3.95;;;;;;;22.81;60.67;98320.62;5368232;26;20743;-80
2022/06/11 04:19:41;;;;;;;8.23;3.22;;;;;;;22.82;60.38;98327.53;5348337;26;20131;-80
2022/06/11 04:22:08;;;;;;;9.02;3.90;;;;;;;22.99;59.99;98336.62;5367993;26;20047;-80
2022/06/11 04:24:35;;;;;;;8.02;3.60;;;;;;;23.10;58.98;98333.88;5368349;26;20059;-80
2022/06/11 04:27:04;;;;;;;7.32;3.60;;;;;;;23.29;58.43;98336.50;5368037;26;20125;-80
2022/06/11 04:29:34;;;;;;;9.75;3.58;;;;;;;23.96;57.12;98345.34;5347879;26;20072;-80
2022/06/11 04:32:04;;;;;;;8.10;3.40;;;;;;;23.93;56.59;98341.19;5368170;26;20111;-80
2022/06/11 04:34:32;;;;;;;6.53;3.28;;;;;;;23.55;58.09;98341.19;5368144;26;20053;-80
2022/06/11 04:36:59;;;;;;;6.75;3.50;;;;;;;23.83;56.80;98348.28;5367738;26;20111;-80
2022/06/11 04:39:29;;;;;;;7.68;3.17;;;;;;;24.06;56.71;98353.22;5368079;26;20111;-80
2022/06/11 04:41:57;;;;;;;7.65;3.10;;;;;;;22.83;59.29;98345.00;5368299;26;20044;-80
2022/06/11 04:44:24;;;;;;;7.20;3.20;;;;;;;23.55;57.91;98349.09;5368179;26;20044;-80
2022/06/11 04:46:51;;;;;;;8.60;3.53;;;;;;;24.08;56.22;98344.19;5368009;26;20429;-80
2022/06/11 04:49:18;;;;;;;7.57;3.35;;;;;;;24.21;56.59;98342.06;5368729;26;20071;-80
2022/06/11 04:51:45;;;;;;;7.72;3.33;;;;;;;25.20;52.65;98342.28;5369065;26;20130;-80
2022/06/11 04:54:12;;;;;;;7.25;2.90;;;;;;;23.75;56.32;98344.69;5369143;26;20059;-80
2022/06/11 04:56:40;;;;;;;8.80;4.28;;;;;;;22.50;59.86;98339.09;5368768;26;20061;-80
2022/06/11 04:59:07;;;;;;;8.10;3.67;;;;;;;23.12;59.09;98344.25;5369010;26;20056;-80
2022/06/11 05:01:38;;;;;;;7.93;3.62;;;;;;;22.51;60.85;98343.38;5369199;26;20081;-80
2022/06/11 05:04:05;;;;;;;8.25;3.67;;;;;;;22.29;61.96;98342.75;5368803;26;20044;-80
2022/06/11 05:06:35;;;;;;;8.68;3.65;;;;;;;22.97;59.77;98354.34;5369197;26;20135;-80
2022/06/11 05:09:03;;;;;;;7.50;3.40;;;;;;;23.07;58.72;98356.03;5368901;26;20070;-80
2022/06/11 05:11:30;;;;;;;7.30;3.58;;;;;;;23.35;58.00;98361.44;5368751;26;20111;-80
2022/06/11 05:13:57;;;;;;;9.82;3.80;;;;;;;23.00;58.96;98356.69;5369139;26;20099;-80
2022/06/11 05:16:25;;;;;;;8.95;3.30;;;;;;;23.82;57.25;98372.97;5369066;26;20544;-80
2022/06/11 05:18:52;;;;;;;7.65;3.58;;;;;;;24.49;54.23;98363.22;5348590;26;20109;-80
2022/06/11 05:21:20;;;;;;;7.75;3.45;;;;;;;25.11;52.63;98368.75;5369099;26;20126;-80
2022/06/11 05:23:47;;;;;;;6.32;3.10;;;;;;;25.64;50.40;98371.41;5369131;26;20103;-80
2022/06/11 05:26:16;;;;;;;9.55;3.67;;;;;;;24.04;54.47;98371.81;5368755;26;20694;-80
2022/06/11 05:28:44;;;;;;;7.03;3.65;;;;;;;24.42;53.40;98378.78;5348998;26;20123;-80
2022/06/11 05:31:11;;;;;;;10.23;3.90;;;;;;;24.30;54.09;98379.91;5368640;26;20202;-80
2022/06/11 05:33:39;;;;;;;8.32;3.70;;;;;;;23.20;57.08;98376.81;5369086;26;20318;-80
2022/06/11 05:36:06;;;;;;;9.32;3.65;;;;;;;23.58;57.00;98383.06;5369065;26;20072;-80
2022/06/11 05:38:34;;;;;;;6.95;3.55;;;;;;;23.71;56.58;98386.25;5368362;26;20065;-80
2022/06/11 05:41:01;;;;;;;8.38;3.60;;;;;;;24.29;54.41;98387.97;5368941;26;20065;-80
2022/06/11 05:43:28;;;;;;;6.90;3.40;;;;;;;24.85;52.92;98382.63;5349081;26;20522;-80
2022/06/11 05:46:00;;;;;;;10.02;3.40;;;;;;;24.96;52.74;98376.31;5368647;26;20066;-80
2022/06/11 05:48:35;;;;;;;6.87;3.10;;;;;;;24.88;53.15;98374.41;5348748;26;20421;-80
2022/06/11 05:51:03;;;;;;;8.18;3.65;;;;;;;24.58;54.17;98380.81;5349122;26;20135;-80
2022/06/11 05:53:32;;;;;;;8.13;3.62;;;;;;;24.98;52.64;98380.44;5348661;26;20123;-80
2022/06/11 05:56:00;;;;;;;7.60;3.62;;;;;;;24.86;53.20;98367.59;5349181;26;20079;-80
2022/06/11 05:58:34;;;;;;;9.82;3.75;;;;;;;24.99;52.78;98368.94;5368424;26;20119;-80
2022/06/11 06:01:01;;;;;;;8.27;3.37;;;;;;;25.06;52.94;98362.09;5348777;26;20062;-80
2022/06/11 06:03:28;;;;;;;6.12;3.30;;;;;;;25.38;52.28;98366.03;5368942;26;20099;-80
2022/06/11 06:05:56;;;;;;;7.57;3.45;;;;;;;25.44;51.83;98365.44;5368927;26;20056;-80
2022/06/11 06:08:23;;;;;;;6.95;3.50;;;;;;;25.22;52.96;98369.37;5368338;26;20112;-80
2022/06/11 06:10:50;;;;;;;5.28;3.08;;;;;;;26.71;49.07;98371.13;5369052;26;20106;-80
2022/06/11 06:16:02;;;;;;;6.97;3.22;;;;;;;26.10;50.08;98361.50;5369142;26;20057;-80
2022/06/11 06:18:29;;;;;;;6.32;3.30;;;;;;;26.06;50.21;98357.53;5368777;26;20060;-80
2022/06/11 06:20:56;;;;;;;7.25;3.20;;;;;;;25.50;52.63;98369.28;5368530;26;20110;-80
2022/06/11 06:23:23;;;;;;;8.18;3.47;;;;;;;26.13;51.01;98367.31;5349151;26;20056;-80
2022/06/11 06:25:50;;;;;;;8.55;3.25;;;;;;;25.41;51.89;98367.53;5369192;26;20414;-80
2022/06/11 06:28:17;;;;;;;7.87;3.70;;;;;;;25.54;52.77;98360.91;5368342;26;20131;-80
2022/06/11 06:30:45;;;;;;;8.68;3.78;;;;;;;25.91;51.68;98371.28;5368907;26;20107;-79
2022/06/11 06:33:12;;;;;;;7.55;3.30;;;;;;;26.02;51.60;98359.63;5368653;26;20070;-79
2022/06/11 06:35:43;;;;;;;6.07;3.00;;;;;;;26.69;49.84;98362.47;5349340;26;20060;-80
2022/06/11 06:38:10;;;;;;;8.63;3.47;;;;;;;26.61;50.31;98365.13;5368686;26;20403;-80
2022/06/11 06:40:37;;;;;;;7.68;3.40;;;;;;;26.47;51.33;98371.81;5368947;26;20117;-80
2022/06/11 06:43:09;;;;;;;6.18;3.53;;;;;;;26.37;50.89;98373.75;5368606;26;20106;-80
2022/06/11 06:45:36;;;;;;;6.85;3.15;;;;;;;26.62;50.04;98374.72;5368729;26;20399;-80
2022/06/11 06:48:04;;;;;;;5.85;3.08;;;;;;;26.20;50.30;98370.16;5368294;26;20051;-80
2022/06/11 06:50:34;;;;;;;6.57;3.15;;;;;;;26.69;50.22;98373.94;5368616;26;20104;-80
2022/06/11 06:53:01;;;;;;;7.37;3.15;;;;;;;26.85;49.17;98382.91;5368700;26;20020;-80
2022/06/11 06:55:28;;;;;;;7.07;3.08;;;;;;;27.06;48.60;98375.38;5368386;26;20071;-80
2022/06/11 06:57:54;;;;;;;7.25;3.30;;;;;;;27.44;47.80;98383.75;5368618;26;20056;-80
2022/06/11 07:00:22;;;;;;;7.78;3.40;;;;;;;27.49;47.99;98373.47;5368871;26;20404;-80
2022/06/11 07:02:49;;;;;;;7.62;3.17;;;;;;;27.19;49.01;98372.25;5368480;26;20533;-80
2022/06/11 07:05:17;;;;;;;5.62;3.10;;;;;;;27.63;46.91;98378.94;5349085;26;20060;-80
2022/06/11 07:07:47;;;;;;;6.03;3.20;;;;;;;27.03;47.60;98373.91;5368652;26;20076;-80
2022/06/11 07:10:16;;;;;;;8.48;3.50;;;;;;;26.87;47.92;98372.97;5368434;26;20098;-80
2022/06/11 07:12:43;;;;;;;8.30;3.58;;;;;;;27.10;48.45;98371.41;5348643;26;20104;-80
2022/06/11 07:15:10;;;;;;;7.00;3.20;;;;;;;26.37;49.93;98379.03;5368733;26;20107;-80
2022/06/11 07:17:41;;;;;;;7.45;3.60;;;;;;;25.33;51.04;98355.94;5348281;26;20115;-80
2022/06/11 07:20:12;;;;;;;6.80;2.90;;;;;;;24.34;53.99;98362.84;5368570;26;20059;-80
2022/06/11 07:22:59;;;;;;;8.02;3.50;;;;;;;24.19;55.09;98364.28;5348904;26;20119;-80
2022/06/11 07:25:28;;;;;;;6.15;2.97;;;;;;;25.52;52.79;98376.09;5368277;26;20455;-80
2022/06/11 07:27:59;;;;;;;6.05;2.97;;;;;;;25.64;51.97;98372.22;5368519;26;20127;-80
2022/06/11 07:30:27;;;;;;;7.55;3.10;;;;;;;26.42;49.68;98377.59;5368346;26;20099;-80
2022/06/11 07:33:01;;;;;;;6.05;2.80;;;;;;;27.06;47.91;98372.75;5368443;26;20051;-80
2022/06/11 07:35:28;;;;;;;6.45;3.40;;;;;;;26.83;48.31;98385.72;5368720;26;20116;-80
2022/06/11 07:37:55;;;;;;;6.22;3.20;;;;;;;27.12;47.38;98369.44;5368119;26;20107;-80
2022/06/11 07:40:24;;;;;;;5.82;2.97;;;;;;;26.63;47.62;98381.66;5368656;26;20103;-80
2022/06/11 07:42:51;;;;;;;7.15;3.40;;;;;;;26.67;46.32;98375.88;5368588;26;20075;-80
2022/06/11 07:45:18;;;;;;;7.57;3.03;;;;;;;;;;5368029;26;20644;-80
2022/06/11 07:47:54;;;;;;;8.18;3.22;;;;;;;26.45;50.62;98379.09;5368264;26;20459;-80
2022/06/11 07:50:26;;;;;;;8.55;3.83;;;;;;;27.44;47.89;98386.41;5368662;26;20060;-80
2022/06/11 07:52:53;;;;;;;7.78;3.37;;;;;;;27.44;47.02;98399.66;5368009;26;20103;-80
2022/06/11 07:55:22;;;;;;;6.90;2.92;;;;;;;26.99;48.10;98390.22;5368481;26;20135;-80
2022/06/11 07:57:49;;;;;;;7.20;3.12;;;;;;;26.94;48.31;98392.53;5368500;26;20087;-80
2022/06/11 08:00:29;;;;;;;7.47;3.30;;;;;;;27.28;47.51;98400.44;5368134;26;20051;-80
2022/06/11 08:02:56;;;;;;;7.50;3.35;;;;;;;28.42;43.68;98403.94;5348662;26;20044;-80
2022/06/11 08:05:24;;;;;;;7.35;3.25;;;;;;;28.55;44.91;98405.22;5368451;26;20148;-80
2022/06/11 08:07:53;;;;;;;6.40;2.75;;;;;;;28.57;42.69;98411.19;5367912;26;20111;-80
2022/06/11 08:10:23;;;;;;;5.72;2.83;;;;;;;28.74;43.56;98404.84;5368433;26;20054;-80
2022/06/11 08:12:50;;;;;;;6.10;2.67;;;;;;;28.44;43.58;98396.62;5367990;26;20060;-80
2022/06/11 08:15:17;;;;;;;8.70;3.17;;;;;;;27.21;46.18;98399.41;5368343;26;20080;-80
2022/06/11 08:17:44;;;;;;;6.28;3.00;;;;;;;27.82;46.23;98408.78;5368142;26;20542;-80
2022/06/11 08:20:18;;;;;;;8.40;2.95;;;;;;;27.33;46.40;98406.09;5367935;26;20060;-80
2022/06/11 08:22:45;;;;;;;9.25;2.87;;;;;;;27.96;45.42;98411.59;5369053;26;20413;-80
2022/06/11 08:25:12;;;;;;;6.37;2.92;;;;;;;28.19;44.72;98395.00;5369334;26;20056;-80
2022/06/11 08:27:39;;;;;;;4.50;2.60;;;;;;;27.92;45.11;98398.84;5368663;26;20072;-80
2022/06/11 08:30:06;;;;;;;6.95;2.90;;;;;;;27.63;46.70;98394.84;5369322;26;20054;-80
2022/06/11 08:32:33;;;;;;;6.95;2.62;;;;;;;27.11;46.86;98412.78;5369113;26;20103;-80
2022/06/11 08:35:00;;;;;;;7.53;3.20;;;;;;;27.41;45.68;98397.28;5368745;26;20118;-80
2022/06/11 08:37:27;;;;;;;6.18;2.70;;;;;;;27.85;46.24;98400.50;5369164;26;20143;-80
2022/06/11 08:39:54;;;;;;;6.10;3.03;;;;;;;27.22;47.19;98401.06;5369188;26;20127;-80
2022/06/11 08:42:24;;;;;;;5.20;2.85;;;;;;;27.06;47.02;98386.81;5368878;26;20103;-80
2022/06/11 08:44:51;;;;;;;7.90;3.22;;;;;;;27.45;46.46;98388.88;5369365;26;20129;-80
2022/06/11 08:47:21;;;;;;;6.75;2.78;;;;;;;27.74;46.74;98384.94;5368883;26;20104;-80
2022/06/11 08:49:51;;;;;;;7.72;2.85;;;;;;;28.18;45.53;98386.22;5368715;26;20135;-80
2022/06/11 08:52:23;;;;;;;8.57;3.50;;;;;;;28.27;44.22;98400.28;5369319;26;20054;-80
2022/06/11 08:54:50;;;;;;;6.00;3.00;;;;;;;28.00;46.32;98396.19;5368801;26;20103;-80
2022/06/11 08:57:47;;;;;;;4.60;2.80;;;;;;;28.05;45.73;98399.16;5369147;26;20691;-80
2022/06/11 09:00:39;;;;;;;8.57;2.72;;;;;;;28.36;44.67;98387.84;5369094;26;20126;-80
2022/06/11 09:03:40;;;;;;;6.25;3.22;;;;;;;28.30;45.01;98391.22;5368821;26;20352;-80
2022/06/11 09:06:57;;;;;;;6.82;3.37;;;;;;;28.68;43.18;98395.72;5368942;26;20114;-80
2022/06/11 09:09:31;;;;;;;4.10;2.70;;;;;;;28.70;43.69;98399.03;5368710;26;20091;-80
2022/06/11 09:12:07;;;;;;;5.87;3.15;;;;;;;28.47;42.64;98395.47;5369179;26;20130;-80
2022/06/11 09:14:38;;;;;;;5.72;2.45;;;;;;;28.20;42.82;98391.38;5369183;26;20154;-80
2022/06/11 09:17:27;;;;;;;6.32;2.80;;;;;;;27.86;43.18;98384.44;5348709;26;20134;-80
2022/06/11 09:20:18;;;;;;;5.87;2.90;;;;;;;27.70;42.71;98395.03;5369191;26;20070;-80
2022/06/11 09:23:06;;;;;;;6.00;3.00;;;;;;;28.21;42.56;98391.19;5368914;26;20100;-80
2022/06/11 09:25:36;;;;;;;5.20;2.78;;;;;;;28.97;40.95;98386.34;5369157;26;20413;-80
2022/06/11 09:28:26;;;;;;;7.60;2.72;;;;;;;28.66;42.36;98391.59;5368709;26;20467;-80
2022/06/11 09:31:02;;;;;;;5.00;2.75;;;;;;;29.14;40.09;98377.28;5368704;26;20111;-80
2022/06/11 09:33:37;;;;;;;7.65;2.65;;;;;;;28.89;41.33;98399.66;5348827;26;20100;-80
2022/06/11 09:36:05;;;;;;;7.40;2.62;;;;;;;28.57;40.28;98388.13;5368997;26;20382;-80
2022/06/11 09:38:52;;;;;;;5.60;2.80;;;;;;;29.05;41.38;98384.47;5348495;26;20055;-80
2022/06/11 09:41:29;;;;;;;7.60;2.97;;;;;;;29.62;41.10;98384.09;5368857;26;20060;-81
2022/06/11 09:44:15;;;;;;;4.95;2.80;;;;;;;29.25;38.83;98379.53;5368595;26;20048;-80
2022/06/11 09:46:48;;;;;;;5.72;2.45;;;;;;;29.70;38.03;98383.22;5368910;26;20048;-80
2022/06/11 09:49:28;;;;;;;4.62;2.58;;;;;;;29.02;39.68;98378.66;5365188;26;20393;-80
2022/06/11 09:52:20;;;;;;;5.12;2.58;;;;;;;28.83;39.33;98384.41;5368601;26;20072;-80
2022/06/11 09:54:54;;;;;;;6.28;2.78;;;;;;;28.18;40.22;98365.00;5368930;26;20048;-80
2022/06/11 09:57:44;;;;;;;5.05;2.78;;;;;;;28.85;41.06;98383.22;5368855;26;20408;-80
2022/06/11 10:00:11;;;;;;;6.28;2.50;;;;;;;29.90;38.40;98378.25;5369102;26;20139;-80
2022/06/11 10:06:07;;;;;;;7.12;2.50;;;;;;;29.62;37.82;98383.28;5348345;26;20082;-80
2022/06/11 10:09:01;;;;;;;8.90;2.50;;;;;;;29.70;35.86;98380.56;5348902;26;20433;-80
2022/06/11 10:11:37;;;;;;;5.53;2.25;;;;;;;28.84;36.57;98389.53;5360031;26;20127;-80
2022/06/11 10:14:29;;;;;;;6.47;2.40;;;;;;;29.38;36.21;98379.78;5348667;26;20139;-80
2022/06/11 10:16:59;;;;;;;4.50;2.17;;;;;;;28.90;38.50;98388.84;5350038;26;20072;-80
2022/06/11 10:19:50;;;;;;;5.20;2.20;;;;;;;29.70;36.14;98391.19;5368486;26;20049;-80
2022/06/11 10:22:24;;;;;;;5.53;2.47;;;;;;;29.82;37.72;98387.09;5368376;26;20080;-80
2022/06/11 10:25:02;;;;;;;4.30;2.05;;;;;;;30.01;36.81;98369.00;5349302;26;20114;-80
2022/06/11 10:27:37;;;;;;;5.97;2.22;;;;;;;30.00;36.67;98370.00;5368499;26;20066;-80
2022/06/11 10:30:24;;;;;;;5.10;2.17;;;;;;;30.68;36.10;98377.78;5368883;26;20131;-80
2022/06/11 10:32:54;;;;;;;5.53;2.40;;;;;;;30.21;35.17;98376.28;5348645;26;20059;-80
2022/06/11 10:35:24;;;;;;;5.20;2.30;;;;;;;29.80;35.85;98377.66;5349113;26;20076;-80
2022/06/11 10:38:31;;;;;;;4.20;2.00;;;;;;;29.87;35.64;98373.25;5348892;26;20520;-80
2022/06/11 10:41:00;;;;;;;6.25;2.28;;;;;;;30.06;34.59;98369.25;5356582;26;20076;-80
2022/06/11 10:43:41;;;;;;;3.87;1.92;;;;;;;29.24;35.25;98366.41;5368887;26;20091;-80
2022/06/11 10:46:11;;;;;;;6.85;2.40;;;;;;;29.17;34.93;98366.28;5349208;26;20064;-80
2022/06/11 10:48:39;;;;;;;3.60;2.10;;;;;;;28.61;34.96;98370.06;5367778;26;20099;-80
2022/06/11 10:51:14;;;;;;;4.93;2.03;;;;;;;28.55;36.30;98376.84;5349007;26;20377;-80
2022/06/11 10:54:07;;;;;;;4.45;2.10;;;;;;;28.40;36.01;98371.44;5348955;26;20151;-80
2022/06/11 10:56:46;;;;;;;5.25;2.10;;;;;;;28.68;36.15;98361.19;5358565;26;20086;-80
2022/06/11 10:59:22;;;;;;;4.32;2.03;;;;;;;28.56;35.75;98364.41;5368500;26;20122;-80
2022/06/11 11:02:05;;;;;;;4.80;2.33;;;;;;;28.07;36.74;98367.97;5368446;26;20116;-80
2022/06/11 11:04:55;;;;;;;5.40;2.60;;;;;;;28.37;36.00;98365.62;5348984;26;20064;-80
2022/06/11 11:07:24;;;;;;;4.07;2.00;;;;;;;28.04;36.60;98370.16;5368506;26;20462;-80
2022/06/11 11:09:58;;;;;;;5.37;2.20;;;;;;;28.64;37.44;98364.38;5368220;26;20130;-80
2022/06/11 11:12:33;;;;;;;4.37;1.95;;;;;;;28.97;38.72;98371.22;5348833;26;20043;-79
2022/06/11 11:15:11;;;;;;;4.40;2.08;;;;;;;28.86;35.97;98360.13;5348326;26;20079;-78
2022/06/11 11:17:45;;;;;;;5.00;1.90;;;;;;;28.47;39.53;98383.00;5348636;26;20063;-78
2022/06/11 11:20:34;;;;;;;6.62;2.35;;;;;;;28.67;36.84;98375.47;5348804;26;20119;-79
2022/06/11 11:23:06;;;;;;;4.93;2.00;;;;;;;28.90;35.68;98362.28;5368405;26;20391;-79
2022/06/11 11:25:44;;;;;;;4.53;1.90;;;;;;;29.19;34.74;98376.75;5349146;26;20064;-78
2022/06/11 11:28:37;;;;;;;6.57;2.00;;;;;;;29.06;36.05;98369.34;5368597;26;20481;-79
2022/06/11 11:31:08;;;;;;;6.75;2.58;;;;;;;28.66;35.12;98365.88;5368366;26;20393;-79
2022/06/11 11:34:01;;;;;;;3.00;1.70;;;;;;;29.16;33.41;98363.81;5368520;26;20105;-79
2022/06/11 11:36:30;;;;;;;5.22;2.03;;;;;;;28.05;36.16;98369.16;5368323;26;20076;-79
2022/06/11 11:39:08;;;;;;;7.68;2.05;;;;;;;27.43;36.60;98358.22;5368340;26;20059;-79
2022/06/11 11:41:37;;;;;;;4.50;1.92;;;;;;;27.60;35.94;98358.06;5368517;26;20094;-79
2022/06/11 11:44:04;;;;;;;4.45;1.80;;;;;;;27.80;37.43;98366.53;5368217;26;20099;-78
2022/06/11 11:46:34;;;;;;;14.65;2.12;;;;;;;28.74;35.06;98360.53;5368751;26;20074;-78
2022/06/11 11:49:05;;;;;;;4.95;2.03;;;;;;;27.31;36.16;98344.47;5348448;26;20066;-78
2022/06/11 11:51:33;;;;;;;3.50;1.73;;;;;;;26.66;36.66;98349.56;5368128;26;20142;-78
2022/06/11 11:54:06;;;;;;;5.07;1.90;;;;;;;27.36;35.17;98345.63;5368468;26;20398;-78
2022/06/11 11:56:44;;;;;;;5.72;2.10;;;;;;;27.21;36.73;98336.66;5348304;26;20119;-79
2022/06/11 11:59:41;;;;;;;5.00;1.60;;;;;;;27.90;37.58;98353.94;5348165;26;20087;-78
2022/06/11 12:02:33;;;;;;;3.55;1.58;;;;;;;27.74;34.93;98343.34;5368497;26;20371;-79
2022/06/11 12:05:09;;;;;;;4.37;1.90;;;;;;;27.77;35.53;98345.66;5368260;26;20059;-78
2022/06/11 12:07:40;;;;;;;7.57;2.00;;;;;;;27.49;36.00;98346.97;5368231;26;20060;-79